sensor_id;sensor_type;location;lat;lon;timestamp;pressure;altitude;pressure_sealevel;temperature;humidity
71361;BME280;59166;48.908;1.870;2022-12-18T00:04:54;101094.84;;;-2.91;90.86
71361;BME280;59166;48.908;1.870;2022-12-18T00:09:55;101089.00;;;-3.03;91.78
71361;BME280;59166;48.908;1.870;2022-12-18T00:14:58;101079.72;;;-3.07;91.51
71361;BME280;59166;48.908;1.870;2022-12-18T00:19:58;101079.66;;;-3.15;91.95
71361;BME280;59166;48.908;1.870;2022-12-18T00:24:59;101090.50;;;-3.18;92.04
71361;BME280;59166;48.908;1.870;2022-12-18T00:30:02;101092.34;;;-3.19;92.23
71361;BME280;59166;48.908;1.870;2022-12-18T00:35:04;101080.72;;;-3.26;92.70
71361;BME280;59166;48.908;1.870;2022-12-18T00:40:06;101075.28;;;-3.24;92.40
71361;BME280;59166;48.908;1.870;2022-12-18T00:45:09;101089.63;;;-3.27;92.86
71361;BME280;59166;48.908;1.870;2022-12-18T00:50:10;101090.91;;;-3.31;92.69
71361;BME280;59166;48.908;1.870;2022-12-18T00:55:12;101075.50;;;-3.35;92.53
71361;BME280;59166;48.908;1.870;2022-12-18T01:00:15;101069.41;;;-3.36;93.15
71361;BME280;59166;48.908;1.870;2022-12-18T01:05:16;101068.41;;;-3.35;92.90
71361;BME280;59166;48.908;1.870;2022-12-18T01:10:17;101060.97;;;-3.39;93.35
71361;BME280;59166;48.908;1.870;2022-12-18T01:15:20;101066.06;;;-3.38;92.60
71361;BME280;59166;48.908;1.870;2022-12-18T01:20:21;101072.84;;;-3.35;92.56
71361;BME280;59166;48.908;1.870;2022-12-18T01:25:22;101068.56;;;-3.36;92.81
71361;BME280;59166;48.908;1.870;2022-12-18T01:30:24;101072.19;;;-3.37;92.74
71361;BME280;59166;48.908;1.870;2022-12-18T01:35:25;101065.41;;;-3.40;92.83
71361;BME280;59166;48.908;1.870;2022-12-18T01:40:26;101056.78;;;-3.42;92.65
71361;BME280;59166;48.908;1.870;2022-12-18T01:45:29;101048.34;;;-3.45;92.75
71361;BME280;59166;48.908;1.870;2022-12-18T01:50:34;101054.75;;;-3.48;93.22
71361;BME280;59166;48.908;1.870;2022-12-18T01:55:38;101056.03;;;-3.52;93.26
71361;BME280;59166;48.908;1.870;2022-12-18T02:00:42;101048.81;;;-3.50;93.81
71361;BME280;59166;48.908;1.870;2022-12-18T02:05:46;101042.16;;;-3.54;93.89
71361;BME280;59166;48.908;1.870;2022-12-18T02:10:56;101048.81;;;-3.50;93.58
71361;BME280;59166;48.908;1.870;2022-12-18T02:16:03;101034.16;;;-3.44;93.35
71361;BME280;59166;48.908;1.870;2022-12-18T02:21:13;101024.75;;;-3.47;93.62
71361;BME280;59166;48.908;1.870;2022-12-18T02:26:23;101025.28;;;-3.43;93.67
71361;BME280;59166;48.908;1.870;2022-12-18T02:31:30;101014.31;;;-3.48;93.10
71361;BME280;59166;48.908;1.870;2022-12-18T02:36:33;101019.53;;;-3.57;93.22
71361;BME280;59166;48.908;1.870;2022-12-18T02:41:38;101031.53;;;-3.62;93.33
71361;BME280;59166;48.908;1.870;2022-12-18T02:46:42;101018.31;;;-3.62;93.19
71361;BME280;59166;48.908;1.870;2022-12-18T02:51:50;101016.28;;;-3.68;93.75
71361;BME280;59166;48.908;1.870;2022-12-18T02:56:55;101020.91;;;-3.70;93.30
71361;BME280;59166;48.908;1.870;2022-12-18T03:02:00;101021.22;;;-3.73;93.48
71361;BME280;59166;48.908;1.870;2022-12-18T03:07:05;101032.88;;;-3.76;93.33
71361;BME280;59166;48.908;1.870;2022-12-18T03:12:14;101033.03;;;-3.77;93.33
71361;BME280;59166;48.908;1.870;2022-12-18T03:17:19;101030.72;;;-3.80;93.37
71361;BME280;59166;48.908;1.870;2022-12-18T03:22:22;101029.88;;;-3.81;93.77
71361;BME280;59166;48.908;1.870;2022-12-18T03:27:27;101022.09;;;-3.82;93.65
71361;BME280;59166;48.908;1.870;2022-12-18T03:32:33;101011.84;;;-3.85;93.66
71361;BME280;59166;48.908;1.870;2022-12-18T03:37:36;101003.25;;;-3.87;94.15
71361;BME280;59166;48.908;1.870;2022-12-18T03:42:43;101004.94;;;-3.86;93.78
71361;BME280;59166;48.908;1.870;2022-12-18T03:47:55;100996.91;;;-3.94;94.12
71361;BME280;59166;48.908;1.870;2022-12-18T03:53:06;100993.00;;;-3.90;94.31
71361;BME280;59166;48.908;1.870;2022-12-18T03:58:13;100979.28;;;-3.94;93.90
71361;BME280;59166;48.908;1.870;2022-12-18T04:03:17;100979.41;;;-3.95;94.22
71361;BME280;59166;48.908;1.870;2022-12-18T04:08:20;100971.28;;;-4.02;94.01
71361;BME280;59166;48.908;1.870;2022-12-18T04:13:27;100969.78;;;-4.05;94.46
71361;BME280;59166;48.908;1.870;2022-12-18T04:18:28;100971.28;;;-4.02;94.22
71361;BME280;59166;48.908;1.870;2022-12-18T04:23:29;100977.81;;;-4.06;94.39
71361;BME280;59166;48.908;1.870;2022-12-18T04:28:31;100986.03;;;-4.09;93.79
71361;BME280;59166;48.908;1.870;2022-12-18T04:33:32;100993.94;;;-4.09;94.10
71361;BME280;59166;48.908;1.870;2022-12-18T04:38:33;100991.31;;;-4.09;94.14
71361;BME280;59166;48.908;1.870;2022-12-18T04:43:35;100985.97;;;-4.17;93.84
71361;BME280;59166;48.908;1.870;2022-12-18T04:48:36;100991.53;;;-4.20;94.47
71361;BME280;59166;48.908;1.870;2022-12-18T04:53:37;100984.06;;;-4.25;93.79
71361;BME280;59166;48.908;1.870;2022-12-18T04:58:41;100992.28;;;-4.28;94.36
71361;BME280;59166;48.908;1.870;2022-12-18T05:03:43;100998.81;;;-4.32;94.22
71361;BME280;59166;48.908;1.870;2022-12-18T05:08:43;101017.28;;;-4.32;94.25
71361;BME280;59166;48.908;1.870;2022-12-18T05:13:46;101025.31;;;-4.33;94.28
71361;BME280;59166;48.908;1.870;2022-12-18T05:18:47;101015.63;;;-4.33;94.51
71361;BME280;59166;48.908;1.870;2022-12-18T05:23:48;101023.22;;;-4.30;94.01
71361;BME280;59166;48.908;1.870;2022-12-18T05:28:50;101012.69;;;-4.30;94.29
71361;BME280;59166;48.908;1.870;2022-12-18T05:33:51;100998.81;;;-4.32;94.24
71361;BME280;59166;48.908;1.870;2022-12-18T05:38:51;100991.03;;;-4.33;94.93
71361;BME280;59166;48.908;1.870;2022-12-18T05:43:54;100975.53;;;-4.36;94.54
71361;BME280;59166;48.908;1.870;2022-12-18T05:48:55;100965.50;;;-4.33;95.48
71361;BME280;59166;48.908;1.870;2022-12-18T05:53:55;100974.25;;;-4.32;95.06
71361;BME280;59166;48.908;1.870;2022-12-18T05:58:58;100974.66;;;-4.27;95.01
71361;BME280;59166;48.908;1.870;2022-12-18T06:03:59;100971.84;;;-4.26;95.14
71361;BME280;59166;48.908;1.870;2022-12-18T06:08:59;100989.66;;;-4.28;95.27
71361;BME280;59166;48.908;1.870;2022-12-18T06:14:03;100994.22;;;-4.30;95.13
71361;BME280;59166;48.908;1.870;2022-12-18T06:19:05;100996.59;;;-4.27;94.98
71361;BME280;59166;48.908;1.870;2022-12-18T06:24:06;100981.34;;;-4.33;94.42
71361;BME280;59166;48.908;1.870;2022-12-18T06:29:09;100973.41;;;-4.33;94.77
71361;BME280;59166;48.908;1.870;2022-12-18T06:34:10;100966.66;;;-4.35;94.27
71361;BME280;59166;48.908;1.870;2022-12-18T06:39:10;100980.25;;;-4.40;94.99
71361;BME280;59166;48.908;1.870;2022-12-18T06:44:13;100978.47;;;-4.39;95.27
71361;BME280;59166;48.908;1.870;2022-12-18T06:49:14;100960.53;;;-4.36;94.93
71361;BME280;59166;48.908;1.870;2022-12-18T06:54:15;100945.53;;;-4.35;94.43
71361;BME280;59166;48.908;1.870;2022-12-18T06:59:17;100942.38;;;-4.39;94.29
71361;BME280;59166;48.908;1.870;2022-12-18T07:04:18;100932.81;;;-4.40;94.49
71361;BME280;59166;48.908;1.870;2022-12-18T07:09:19;100934.22;;;-4.45;95.12
71361;BME280;59166;48.908;1.870;2022-12-18T07:14:22;100936.88;;;-4.45;95.05
71361;BME280;59166;48.908;1.870;2022-12-18T07:19:22;100939.59;;;-4.37;94.56
71361;BME280;59166;48.908;1.870;2022-12-18T07:24:23;100948.09;;;-4.43;95.02
71361;BME280;59166;48.908;1.870;2022-12-18T07:29:26;100941.19;;;-4.44;95.03
71361;BME280;59166;48.908;1.870;2022-12-18T07:34:27;100937.94;;;-4.38;95.05
71361;BME280;59166;48.908;1.870;2022-12-18T07:39:28;100951.66;;;-4.35;94.76
71361;BME280;59166;48.908;1.870;2022-12-18T07:44:30;100935.66;;;-4.33;94.48
71361;BME280;59166;48.908;1.870;2022-12-18T07:49:31;100924.31;;;-4.34;94.52
71361;BME280;59166;48.908;1.870;2022-12-18T07:54:33;100915.41;;;-4.33;94.38
71361;BME280;59166;48.908;1.870;2022-12-18T07:59:36;100920.38;;;-4.30;94.87
71361;BME280;59166;48.908;1.870;2022-12-18T08:04:37;100921.59;;;-4.24;94.60
71361;BME280;59166;48.908;1.870;2022-12-18T08:09:38;100933.56;;;-4.30;94.87
71361;BME280;59166;48.908;1.870;2022-12-18T08:14:41;100930.78;;;-4.28;95.04
71361;BME280;59166;48.908;1.870;2022-12-18T08:19:41;100947.50;;;-4.20;95.02
71361;BME280;59166;48.908;1.870;2022-12-18T08:24:42;100958.59;;;-4.16;95.06
71361;BME280;59166;48.908;1.870;2022-12-18T08:29:45;100958.75;;;-4.18;94.91
71361;BME280;59166;48.908;1.870;2022-12-18T08:34:45;100951.59;;;-4.08;94.87
71361;BME280;59166;48.908;1.870;2022-12-18T08:39:46;100951.97;;;-4.03;94.85
71361;BME280;59166;48.908;1.870;2022-12-18T08:44:49;100974.13;;;-3.95;94.75
71361;BME280;59166;48.908;1.870;2022-12-18T08:49:49;100981.16;;;-3.86;94.34
71361;BME280;59166;48.908;1.870;2022-12-18T08:54:50;100968.19;;;-3.80;94.11
71361;BME280;59166;48.908;1.870;2022-12-18T08:59:53;100977.31;;;-3.74;94.19
71361;BME280;59166;48.908;1.870;2022-12-18T09:04:54;100964.78;;;-3.72;94.36
71361;BME280;59166;48.908;1.870;2022-12-18T09:09:55;100948.19;;;-3.65;94.41
71361;BME280;59166;48.908;1.870;2022-12-18T09:14:57;100949.09;;;-3.56;94.03
71361;BME280;59166;48.908;1.870;2022-12-18T09:19:58;100953.75;;;-3.50;94.29
71361;BME280;59166;48.908;1.870;2022-12-18T09:24:59;100947.00;;;-3.44;93.64
71361;BME280;59166;48.908;1.870;2022-12-18T09:30:02;100952.50;;;-3.38;93.64
71361;BME280;59166;48.908;1.870;2022-12-18T09:35:04;100951.59;;;-3.29;93.65
71361;BME280;59166;48.908;1.870;2022-12-18T09:40:06;100949.69;;;-3.19;94.18
71361;BME280;59166;48.908;1.870;2022-12-18T09:45:12;100940.81;;;-3.10;93.89
71361;BME280;59166;48.908;1.870;2022-12-18T09:50:21;100960.47;;;-3.04;93.99
71361;BME280;59166;48.908;1.870;2022-12-18T09:55:25;100965.34;;;-2.91;93.71
71361;BME280;59166;48.908;1.870;2022-12-18T10:00:30;100962.22;;;-2.87;92.86
71361;BME280;59166;48.908;1.870;2022-12-18T10:05:39;100964.22;;;-2.81;93.38
71361;BME280;59166;48.908;1.870;2022-12-18T10:10:47;100959.16;;;-2.74;92.79
71361;BME280;59166;48.908;1.870;2022-12-18T10:16:00;100939.69;;;-2.65;93.36
71361;BME280;59166;48.908;1.870;2022-12-18T10:21:10;100942.72;;;-2.52;93.30
71361;BME280;59166;48.908;1.870;2022-12-18T10:26:12;100944.72;;;-2.46;93.12
71361;BME280;59166;48.908;1.870;2022-12-18T10:31:16;100936.81;;;-2.30;93.63
71361;BME280;59166;48.908;1.870;2022-12-18T10:36:18;100936.84;;;-2.14;93.56
71361;BME280;59166;48.908;1.870;2022-12-18T10:41:26;100939.38;;;-2.04;92.88
71361;BME280;59166;48.908;1.870;2022-12-18T10:46:28;100938.22;;;-1.93;93.63
71361;BME280;59166;48.908;1.870;2022-12-18T10:51:31;100924.47;;;-1.89;92.10
71361;BME280;59166;48.908;1.870;2022-12-18T10:56:34;100912.22;;;-1.82;91.96
71361;BME280;59166;48.908;1.870;2022-12-18T11:01:49;100911.91;;;-1.71;91.72
71361;BME280;59166;48.908;1.870;2022-12-18T11:06:56;100922.00;;;-1.66;91.85
71361;BME280;59166;48.908;1.870;2022-12-18T11:11:59;100918.03;;;-1.54;91.62
71361;BME280;59166;48.908;1.870;2022-12-18T11:17:02;100913.38;;;-1.44;90.97
71361;BME280;59166;48.908;1.870;2022-12-18T11:22:19;100912.34;;;-1.35;91.68
71361;BME280;59166;48.908;1.870;2022-12-18T11:27:21;100891.16;;;-1.27;90.86
71361;BME280;59166;48.908;1.870;2022-12-18T11:32:34;100895.44;;;-1.18;90.76
71361;BME280;59166;48.908;1.870;2022-12-18T11:37:37;100889.28;;;-1.10;90.48
71361;BME280;59166;48.908;1.870;2022-12-18T11:42:44;100869.88;;;-1.03;90.45
71361;BME280;59166;48.908;1.870;2022-12-18T11:47:54;100866.19;;;-0.93;90.00
71361;BME280;59166;48.908;1.870;2022-12-18T11:52:57;100859.34;;;-0.88;90.24
71361;BME280;59166;48.908;1.870;2022-12-18T11:58:03;100857.16;;;-0.76;89.66
71361;BME280;59166;48.908;1.870;2022-12-18T12:03:29;100853.47;;;-0.67;89.15
71361;BME280;59166;48.908;1.870;2022-12-18T12:08:49;100842.81;;;-0.59;88.77
71361;BME280;59166;48.908;1.870;2022-12-18T12:14:04;100838.09;;;-0.49;88.05
71361;BME280;59166;48.908;1.870;2022-12-18T12:19:24;100836.75;;;-0.45;87.91
71361;BME280;59166;48.908;1.870;2022-12-18T12:24:37;100830.38;;;-0.36;87.67
71361;BME280;59166;48.908;1.870;2022-12-18T12:29:53;100821.69;;;-0.30;88.12
71361;BME280;59166;48.908;1.870;2022-12-18T12:35:10;100816.16;;;-0.20;87.49
71361;BME280;59166;48.908;1.870;2022-12-18T12:40:15;100830.56;;;-0.15;87.21
71361;BME280;59166;48.908;1.870;2022-12-18T12:45:23;100823.34;;;-0.06;87.04
71361;BME280;59166;48.908;1.870;2022-12-18T12:50:30;100804.38;;;-0.03;86.45
71361;BME280;59166;48.908;1.870;2022-12-18T12:55:34;100796.06;;;-0.00;86.88
71361;BME280;59166;48.908;1.870;2022-12-18T13:00:40;100797.56;;;0.02;86.15
71361;BME280;59166;48.908;1.870;2022-12-18T13:05:52;100793.25;;;0.01;86.56
71361;BME280;59166;48.908;1.870;2022-12-18T13:10:55;100792.81;;;0.13;86.44
71361;BME280;59166;48.908;1.870;2022-12-18T13:16:04;100781.63;;;0.17;86.56
71361;BME280;59166;48.908;1.870;2022-12-18T13:21:17;100791.53;;;0.23;86.36
71361;BME280;59166;48.908;1.870;2022-12-18T13:26:30;100791.00;;;0.28;87.21
71361;BME280;59166;48.908;1.870;2022-12-18T13:37:41;100775.06;;;0.42;87.28
71361;BME280;59166;48.908;1.870;2022-12-18T13:42:42;100757.91;;;0.45;87.73
71361;BME280;59166;48.908;1.870;2022-12-18T13:47:43;100741.69;;;0.54;88.20
71361;BME280;59166;48.908;1.870;2022-12-18T13:52:45;100723.75;;;0.56;88.60
71361;BME280;59166;48.908;1.870;2022-12-18T13:57:46;100735.47;;;0.62;89.44
71361;BME280;59166;48.908;1.870;2022-12-18T14:02:47;100727.19;;;0.72;89.94
71361;BME280;59166;48.908;1.870;2022-12-18T14:07:49;100721.03;;;0.71;91.04
71361;BME280;59166;48.908;1.870;2022-12-18T14:12:50;100720.28;;;0.77;91.19
71361;BME280;59166;48.908;1.870;2022-12-18T14:17:52;100710.47;;;0.78;92.05
71361;BME280;59166;48.908;1.870;2022-12-18T14:22:56;100714.41;;;0.82;92.59
71361;BME280;59166;48.908;1.870;2022-12-18T14:28:04;100703.41;;;0.85;93.65
71361;BME280;59166;48.908;1.870;2022-12-18T14:33:12;100709.56;;;0.85;93.71
71361;BME280;59166;48.908;1.870;2022-12-18T14:38:28;100703.31;;;0.93;94.15
71361;BME280;59166;48.908;1.870;2022-12-18T14:43:32;100707.59;;;0.94;94.65
71361;BME280;59166;48.908;1.870;2022-12-18T14:48:36;100707.03;;;0.98;94.96
71361;BME280;59166;48.908;1.870;2022-12-18T14:53:41;100711.16;;;1.01;95.49
71361;BME280;59166;48.908;1.870;2022-12-18T14:58:47;100713.06;;;1.07;96.65
71361;BME280;59166;48.908;1.870;2022-12-18T15:03:48;100707.38;;;1.10;97.23
71361;BME280;59166;48.908;1.870;2022-12-18T15:08:50;100693.63;;;1.06;97.02
71361;BME280;59166;48.908;1.870;2022-12-18T15:13:52;100691.34;;;1.03;97.32
71361;BME280;59166;48.908;1.870;2022-12-18T15:18:53;100673.97;;;1.07;97.64
71361;BME280;59166;48.908;1.870;2022-12-18T15:23:58;100659.72;;;1.15;97.65
71361;BME280;59166;48.908;1.870;2022-12-18T15:28:58;100648.91;;;1.17;98.95
71361;BME280;59166;48.908;1.870;2022-12-18T15:34:18;100650.03;;;1.29;99.32
71361;BME280;59166;48.908;1.870;2022-12-18T15:39:21;100650.72;;;1.37;98.55
71361;BME280;59166;48.908;1.870;2022-12-18T15:44:23;100658.34;;;1.40;98.34
71361;BME280;59166;48.908;1.870;2022-12-18T15:49:24;100664.28;;;1.42;98.16
71361;BME280;59166;48.908;1.870;2022-12-18T15:54:26;100654.31;;;1.51;98.43
71361;BME280;59166;48.908;1.870;2022-12-18T15:59:27;100655.34;;;1.50;99.05
71361;BME280;59166;48.908;1.870;2022-12-18T16:04:28;100663.53;;;1.55;99.85
71361;BME280;59166;48.908;1.870;2022-12-18T16:09:30;100667.03;;;1.55;100.00
71361;BME280;59166;48.908;1.870;2022-12-18T16:14:31;100673.44;;;1.61;100.00
71361;BME280;59166;48.908;1.870;2022-12-18T16:19:32;100656.44;;;1.62;100.00
71361;BME280;59166;48.908;1.870;2022-12-18T16:24:34;100661.00;;;1.68;100.00
71361;BME280;59166;48.908;1.870;2022-12-18T16:29:35;100651.56;;;1.66;100.00
71361;BME280;59166;48.908;1.870;2022-12-18T16:34:35;100647.50;;;1.70;100.00
71361;BME280;59166;48.908;1.870;2022-12-18T16:39:38;100640.56;;;1.75;100.00
71361;BME280;59166;48.908;1.870;2022-12-18T16:44:39;100629.13;;;1.81;100.00
71361;BME280;59166;48.908;1.870;2022-12-18T16:49:40;100627.34;;;1.88;100.00
71361;BME280;59166;48.908;1.870;2022-12-18T16:54:42;100607.06;;;1.94;100.00
71361;BME280;59166;48.908;1.870;2022-12-18T16:59:44;100591.72;;;1.96;100.00
71361;BME280;59166;48.908;1.870;2022-12-18T17:04:45;100594.00;;;2.05;100.00
71361;BME280;59166;48.908;1.870;2022-12-18T17:09:47;100597.75;;;2.11;100.00
71361;BME280;59166;48.908;1.870;2022-12-18T17:14:48;100591.19;;;2.13;100.00
71361;BME280;59166;48.908;1.870;2022-12-18T17:19:48;100603.94;;;2.18;100.00
71361;BME280;59166;48.908;1.870;2022-12-18T17:24:51;100606.63;;;2.25;100.00
71361;BME280;59166;48.908;1.870;2022-12-18T17:29:51;100592.66;;;2.29;100.00
71361;BME280;59166;48.908;1.870;2022-12-18T17:34:53;100595.78;;;2.39;100.00
71361;BME280;59166;48.908;1.870;2022-12-18T17:39:55;100599.91;;;2.42;100.00
71361;BME280;59166;48.908;1.870;2022-12-18T17:44:56;100607.50;;;2.45;100.00
71361;BME280;59166;48.908;1.870;2022-12-18T17:49:57;100615.53;;;2.51;100.00
71361;BME280;59166;48.908;1.870;2022-12-18T17:54:59;100631.16;;;2.61;100.00
71361;BME280;59166;48.908;1.870;2022-12-18T17:59:59;100632.59;;;2.63;100.00
71361;BME280;59166;48.908;1.870;2022-12-18T18:05:00;100638.75;;;2.71;100.00
71361;BME280;59166;48.908;1.870;2022-12-18T18:10:03;100635.91;;;2.79;100.00
71361;BME280;59166;48.908;1.870;2022-12-18T18:15:04;100647.19;;;2.81;100.00
71361;BME280;59166;48.908;1.870;2022-12-18T18:20:05;100652.13;;;2.84;100.00
71361;BME280;59166;48.908;1.870;2022-12-18T18:25:11;100657.69;;;2.89;100.00
71361;BME280;59166;48.908;1.870;2022-12-18T18:30:12;100653.78;;;2.91;100.00
71361;BME280;59166;48.908;1.870;2022-12-18T18:35:13;100651.34;;;2.96;100.00
71361;BME280;59166;48.908;1.870;2022-12-18T18:40:15;100638.19;;;2.95;100.00
71361;BME280;59166;48.908;1.870;2022-12-18T18:45:15;100630.63;;;2.98;100.00
71361;BME280;59166;48.908;1.870;2022-12-18T18:50:16;100616.03;;;3.07;100.00
71361;BME280;59166;48.908;1.870;2022-12-18T18:55:18;100617.50;;;3.10;100.00
71361;BME280;59166;48.908;1.870;2022-12-18T19:00:19;100617.69;;;3.15;100.00
71361;BME280;59166;48.908;1.870;2022-12-18T19:05:20;100604.56;;;3.20;100.00
71361;BME280;59166;48.908;1.870;2022-12-18T19:10:22;100609.50;;;3.30;100.00
71361;BME280;59166;48.908;1.870;2022-12-18T19:15:22;100602.31;;;3.37;100.00
71361;BME280;59166;48.908;1.870;2022-12-18T19:20:23;100602.50;;;3.42;100.00
71361;BME280;59166;48.908;1.870;2022-12-18T19:25:25;100614.59;;;3.51;100.00
71361;BME280;59166;48.908;1.870;2022-12-18T19:30:26;100622.59;;;3.57;100.00
71361;BME280;59166;48.908;1.870;2022-12-18T19:35:28;100619.75;;;3.65;100.00
71361;BME280;59166;48.908;1.870;2022-12-18T19:40:30;100623.22;;;3.66;100.00
71361;BME280;59166;48.908;1.870;2022-12-18T19:45:31;100614.81;;;3.69;100.00
71361;BME280;59166;48.908;1.870;2022-12-18T19:50:32;100609.47;;;3.69;100.00
71361;BME280;59166;48.908;1.870;2022-12-18T19:55:39;100614.78;;;3.76;100.00
71361;BME280;59166;48.908;1.870;2022-12-18T20:00:39;100617.03;;;3.79;100.00
71361;BME280;59166;48.908;1.870;2022-12-18T20:05:40;100598.75;;;3.82;100.00
71361;BME280;59166;48.908;1.870;2022-12-18T20:10:42;100586.63;;;3.86;100.00
71361;BME280;59166;48.908;1.870;2022-12-18T20:15:43;100567.91;;;3.86;100.00
71361;BME280;59166;48.908;1.870;2022-12-18T20:20:44;100563.56;;;3.92;100.00
71361;BME280;59166;48.908;1.870;2022-12-18T20:25:46;100556.16;;;4.00;100.00
71361;BME280;59166;48.908;1.870;2022-12-18T20:30:47;100586.97;;;4.03;100.00
71361;BME280;59166;48.908;1.870;2022-12-18T20:35:48;100548.94;;;4.07;100.00
71361;BME280;59166;48.908;1.870;2022-12-18T20:40:50;100547.28;;;4.06;100.00
71361;BME280;59166;48.908;1.870;2022-12-18T20:46:08;100551.34;;;4.15;100.00
71361;BME280;59166;48.908;1.870;2022-12-18T20:51:11;100547.06;;;4.14;100.00
71361;BME280;59166;48.908;1.870;2022-12-18T20:56:15;100544.53;;;4.19;100.00
71361;BME280;59166;48.908;1.870;2022-12-18T21:01:18;100537.34;;;4.20;100.00
71361;BME280;59166;48.908;1.870;2022-12-18T21:06:21;100534.88;;;4.18;100.00
71361;BME280;59166;48.908;1.870;2022-12-18T21:11:28;100546.34;;;4.26;100.00
71361;BME280;59166;48.908;1.870;2022-12-18T21:16:29;100537.91;;;4.29;100.00
71361;BME280;59166;48.908;1.870;2022-12-18T21:21:30;100526.56;;;4.33;100.00
71361;BME280;59166;48.908;1.870;2022-12-18T21:26:32;100527.41;;;4.34;100.00
71361;BME280;59166;48.908;1.870;2022-12-18T21:31:35;100535.19;;;4.42;100.00
71361;BME280;59166;48.908;1.870;2022-12-18T21:36:36;100539.28;;;4.44;100.00
71361;BME280;59166;48.908;1.870;2022-12-18T21:41:38;100538.03;;;4.47;100.00
71361;BME280;59166;48.908;1.870;2022-12-18T21:46:41;100546.06;;;4.47;100.00
71361;BME280;59166;48.908;1.870;2022-12-18T21:51:42;100556.94;;;4.45;100.00
71361;BME280;59166;48.908;1.870;2022-12-18T21:56:46;100547.03;;;4.52;100.00
71361;BME280;59166;48.908;1.870;2022-12-18T22:01:49;100547.84;;;4.53;100.00
71361;BME280;59166;48.908;1.870;2022-12-18T22:06:50;100546.84;;;4.54;100.00
71361;BME280;59166;48.908;1.870;2022-12-18T22:11:53;100548.69;;;4.53;100.00
71361;BME280;59166;48.908;1.870;2022-12-18T22:16:54;100553.59;;;4.56;100.00
71361;BME280;59166;48.908;1.870;2022-12-18T22:21:54;100552.97;;;4.61;100.00
71361;BME280;59166;48.908;1.870;2022-12-18T22:26:57;100556.03;;;4.64;100.00
71361;BME280;59166;48.908;1.870;2022-12-18T22:31:57;100564.44;;;4.68;100.00
71361;BME280;59166;48.908;1.870;2022-12-18T22:36:58;100538.28;;;4.70;100.00
71361;BME280;59166;48.908;1.870;2022-12-18T22:42:04;100539.06;;;4.77;100.00
71361;BME280;59166;48.908;1.870;2022-12-18T22:47:05;100543.53;;;4.83;100.00
71361;BME280;59166;48.908;1.870;2022-12-18T22:52:06;100541.88;;;4.89;100.00
71361;BME280;59166;48.908;1.870;2022-12-18T22:57:10;100524.56;;;4.91;100.00
71361;BME280;59166;48.908;1.870;2022-12-18T23:02:10;100531.69;;;4.97;100.00
71361;BME280;59166;48.908;1.870;2022-12-18T23:07:11;100526.09;;;5.05;100.00
71361;BME280;59166;48.908;1.870;2022-12-18T23:12:17;100533.38;;;5.16;100.00
71361;BME280;59166;48.908;1.870;2022-12-18T23:17:18;100528.78;;;5.23;100.00
71361;BME280;59166;48.908;1.870;2022-12-18T23:22:19;100521.91;;;5.34;100.00
71361;BME280;59166;48.908;1.870;2022-12-18T23:27:22;100529.34;;;5.50;100.00
71361;BME280;59166;48.908;1.870;2022-12-18T23:32:23;100542.53;;;5.52;100.00
71361;BME280;59166;48.908;1.870;2022-12-18T23:37:23;100542.09;;;5.55;100.00
71361;BME280;59166;48.908;1.870;2022-12-18T23:42:26;100552.38;;;5.58;100.00
71361;BME280;59166;48.908;1.870;2022-12-18T23:47:26;100533.72;;;5.69;100.00
71361;BME280;59166;48.908;1.870;2022-12-18T23:52:27;100522.91;;;5.76;100.00
71361;BME280;59166;48.908;1.870;2022-12-18T23:57:29;100522.91;;;5.76;100.00
